Terminal Aerodrome Forecast
Issued by NWS

Home | Current Version | Previous Version | Text Only | Print | Product List | Glossary On
Versions: 1 2 3 4 5 6 7 8 9 10 11 12 13 14 15 16 17 18 19 20 21 22 23 24 25 26 27 28 29 30
000
FTUS43 KDMX 230539
TAFOTM
TAF
KOTM 230539Z 2306/2406 22007KT P6SM SKC
     FM231000 26006KT P6SM OVC019
     FM231300 31006KT P6SM OVC026
     FM231600 33009KT P6SM VCSH OVC045
     FM240000 33008KT P6SM OVC050=

USA.gov is the U.S. government's official web portal to all federal, state and local government web resources and services.